Time;durP1;ratioP1;P1;durP2;ratioP2;P2;SDS_P1;SDS_P2;PMS_P1;PMS_P2;Temp;Humidity;BMP_temperature;BMP_pressure;BME280_temperature;BME280_humidity;BME280_pressure;Samples;Min_cycle;Max_cycle;Signal;HPM_P1;HPM_P2
2023/08/16 00:01:03;;;;;;;3.70;3.30;;;24.10;67.80;;;;;;6170594;23;20845;-69
2023/08/16 00:03:32;;;;;;;3.50;2.70;;;24.10;67.90;;;;;;6171173;23;20732;-68
2023/08/16 00:06:09;;;;;;;3.20;2.77;;;24.10;67.80;;;;;;6171183;22;21026;-68
2023/08/16 00:08:37;;;;;;;3.67;2.40;;;24.10;67.80;;;;;;6172665;23;20377;-68
2023/08/16 00:11:06;;;;;;;3.30;3.00;;;24.10;67.80;;;;;;6170586;23;20437;-69
2023/08/16 00:13:36;;;;;;;3.23;2.60;;;24.10;67.80;;;;;;6170521;23;20423;-68
2023/08/16 00:16:04;;;;;;;2.60;2.40;;;24.10;67.80;;;;;;6170236;23;20437;-68
2023/08/16 00:18:33;;;;;;;2.53;2.33;;;24.10;67.80;;;;;;6171725;23;20424;-69
2023/08/16 00:21:01;;;;;;;3.00;2.70;;;24.10;67.80;;;;;;6189429;23;20424;-68
2023/08/16 00:23:30;;;;;;;2.60;2.40;;;24.10;67.80;;;;;;6194590;22;20393;-69
2023/08/16 00:25:58;;;;;;;3.17;2.87;;;24.10;67.80;;;;;;6170361;23;20445;-67
2023/08/16 00:28:27;;;;;;;3.13;2.67;;;24.10;67.90;;;;;;6171202;23;21057;-68
2023/08/16 00:30:57;;;;;;;3.43;2.40;;;24.00;67.70;;;;;;6170236;23;20436;-68
2023/08/16 00:33:25;;;;;;;2.70;2.20;;;24.00;67.70;;;;;;6170772;23;20463;-67
2023/08/16 00:35:53;;;;;;;2.73;2.43;;;24.10;67.80;;;;;;6169752;23;20444;-69
2023/08/16 00:38:22;;;;;;;4.60;2.83;;;24.00;67.90;;;;;;6172051;23;20556;-67
2023/08/16 00:40:51;;;;;;;3.73;2.90;;;24.00;67.70;;;;;;6170818;23;20441;-68
2023/08/16 00:43:20;;;;;;;2.97;2.67;;;24.10;67.90;;;;;;6171615;23;20405;-69
2023/08/16 00:45:49;;;;;;;2.33;2.13;;;24.00;67.70;;;;;;6170159;23;20463;-68
2023/08/16 00:48:20;;;;;;;3.23;2.60;;;24.00;67.90;;;;;;6170917;23;20400;-67
2023/08/16 00:50:48;;;;;;;3.50;2.90;;;24.00;67.70;;;;;;6170175;23;20516;-69
2023/08/16 00:53:19;;;;;;;2.57;2.30;;;24.10;67.90;;;;;;6170323;23;20541;-69
2023/08/16 00:55:47;;;;;;;3.23;2.93;;;24.00;67.80;;;;;;6170656;23;20973;-69
2023/08/16 00:58:16;;;;;;;2.43;2.23;;;24.00;67.70;;;;;;6170503;23;20882;-69
2023/08/16 01:00:45;;;;;;;2.53;2.33;;;24.00;67.70;;;;;;6170824;23;20437;-68
2023/08/16 01:03:13;;;;;;;2.60;2.20;;;24.00;67.80;;;;;;6171059;23;20423;-69
2023/08/16 01:05:43;;;;;;;2.80;2.47;;;24.00;67.80;;;;;;6169526;23;20483;-68
2023/08/16 01:08:12;;;;;;;2.57;2.37;;;24.00;67.80;;;;;;6171876;23;20405;-69
2023/08/16 01:10:48;;;;;;;3.50;2.70;;;24.00;67.80;;;;;;6169992;23;20432;-67
2023/08/16 01:13:25;;;;;;;3.77;2.50;;;24.00;67.80;;;;;;6169540;23;20477;-68
2023/08/16 01:15:57;;;;;;;2.67;2.37;;;24.00;67.90;;;;;;6172012;22;20439;-70
2023/08/16 01:18:45;;;;;;;5.00;2.80;;;24.00;67.90;;;;;;6172301;23;20418;-68
2023/08/16 01:21:35;;;;;;;3.03;2.23;;;24.00;67.80;;;;;;6170965;23;20983;-69
2023/08/16 01:24:09;;;;;;;2.67;2.47;;;24.00;67.80;;;;;;6172351;23;20370;-68
2023/08/16 01:26:41;;;;;;;3.03;2.83;;;24.00;67.80;;;;;;6171248;23;20781;-69
2023/08/16 01:29:10;;;;;;;2.40;2.20;;;24.00;67.70;;;;;;6170365;23;20912;-69
2023/08/16 01:31:39;;;;;;;2.50;2.30;;;24.00;67.70;;;;;;6171020;23;20725;-68
2023/08/16 01:34:08;;;;;;;2.93;2.10;;;24.00;67.80;;;;;;6168506;23;20389;-67
2023/08/16 01:36:36;;;;;;;2.57;2.37;;;24.00;67.80;;;;;;6170993;23;20739;-66
2023/08/16 01:39:05;;;;;;;2.80;2.60;;;24.00;67.90;;;;;;6171130;23;20396;-68
2023/08/16 01:41:37;;;;;;;2.60;2.40;;;24.00;67.70;;;;;;6171072;23;20407;-68
2023/08/16 01:44:09;;;;;;;2.30;2.10;;;24.00;67.80;;;;;;6170136;23;20706;-68
2023/08/16 01:46:39;;;;;;;2.20;2.00;;;24.00;67.80;;;;;;6170133;23;20443;-68
2023/08/16 01:49:09;;;;;;;2.30;2.10;;;24.00;67.80;;;;;;6168600;23;20854;-68
2023/08/16 01:51:38;;;;;;;2.83;2.57;;;24.00;67.90;;;;;;6170678;23;20733;-68
2023/08/16 01:54:07;;;;;;;2.50;2.30;;;23.90;67.70;;;;;;6169938;23;20491;-69
2023/08/16 01:56:35;;;;;;;2.70;2.40;;;24.00;67.80;;;;;;6145540;23;20421;-67
2023/08/16 01:59:04;;;;;;;2.43;2.23;;;24.00;67.80;;;;;;6169575;23;20448;-68
2023/08/16 02:01:34;;;;;;;2.30;2.10;;;23.90;67.60;;;;;;6172357;23;20436;-68
2023/08/16 02:04:03;;;;;;;3.00;2.67;;;23.90;67.70;;;;;;6173552;23;20477;-69
2023/08/16 02:06:31;;;;;;;2.37;2.17;;;24.00;67.80;;;;;;6174879;23;20934;-69
2023/08/16 02:09:00;;;;;;;3.30;2.63;;;23.90;67.70;;;;;;6175561;23;20446;-69
2023/08/16 02:11:31;;;;;;;3.10;2.30;;;23.90;67.70;;;;;;6174281;23;20508;-68
2023/08/16 02:13:59;;;;;;;2.33;2.13;;;23.90;67.70;;;;;;6174265;23;20905;-67
2023/08/16 02:16:31;;;;;;;2.90;2.70;;;24.00;67.80;;;;;;6175010;23;20417;-69
2023/08/16 02:19:00;;;;;;;2.83;2.23;;;23.90;67.60;;;;;;6175705;23;20741;-68
2023/08/16 02:21:29;;;;;;;2.80;2.60;;;23.90;67.60;;;;;;6174688;23;20423;-69
2023/08/16 02:23:57;;;;;;;2.67;2.47;;;23.90;67.60;;;;;;6174790;23;20395;-68
2023/08/16 02:26:25;;;;;;;2.73;2.40;;;23.90;67.70;;;;;;6174589;23;20466;-69
2023/08/16 02:28:54;;;;;;;2.40;2.20;;;23.90;67.70;;;;;;6188136;23;20441;-68
2023/08/16 02:31:23;;;;;;;2.50;2.30;;;23.90;67.60;;;;;;6182822;23;20552;-68
2023/08/16 02:33:51;;;;;;;3.60;2.40;;;23.90;67.60;;;;;;6175422;23;20392;-69
2023/08/16 02:36:21;;;;;;;3.60;2.90;;;23.90;67.60;;;;;;6176971;22;20765;-68
2023/08/16 02:38:50;;;;;;;2.30;2.10;;;23.90;67.70;;;;;;6175329;23;20412;-68
2023/08/16 02:41:18;;;;;;;2.73;2.30;;;23.90;67.60;;;;;;6175164;23;20926;-68
2023/08/16 02:43:47;;;;;;;2.80;2.50;;;23.90;67.70;;;;;;6175406;23;20394;-69
2023/08/16 02:46:15;;;;;;;2.30;2.10;;;23.90;67.80;;;;;;6174886;23;20828;-69
2023/08/16 02:48:43;;;;;;;2.70;2.50;;;23.90;67.70;;;;;;6175710;23;20909;-69
2023/08/16 02:51:12;;;;;;;2.80;2.60;;;23.90;67.60;;;;;;6174273;23;20436;-69
2023/08/16 02:53:41;;;;;;;2.50;2.30;;;23.90;67.60;;;;;;6174529;23;20423;-68
2023/08/16 02:56:10;;;;;;;2.80;2.40;;;23.90;67.60;;;;;;6174844;23;20436;-68
2023/08/16 02:58:39;;;;;;;3.97;2.63;;;23.90;67.70;;;;;;6176394;23;21131;-69
2023/08/16 03:01:09;;;;;;;4.57;3.40;;;23.90;67.70;;;;;;6174876;23;20460;-70
2023/08/16 03:03:38;;;;;;;3.37;3.00;;;23.90;67.80;;;;;;6173697;23;20373;-67
2023/08/16 03:06:06;;;;;;;3.77;3.37;;;23.90;67.80;;;;;;6173095;23;20506;-68
2023/08/16 03:08:34;;;;;;;5.47;4.40;;;23.90;67.80;;;;;;6173449;23;20622;-68
2023/08/16 03:11:04;;;;;;;4.50;3.50;;;23.90;67.70;;;;;;6170871;23;20443;-67
2023/08/16 03:13:33;;;;;;;3.57;2.73;;;23.90;67.70;;;;;;6172368;23;20392;-69
2023/08/16 03:16:01;;;;;;;3.47;3.00;;;23.90;67.60;;;;;;6171922;22;21044;-69
2023/08/16 03:18:30;;;;;;;3.50;2.90;;;23.80;67.60;;;;;;6172248;23;20722;-68
2023/08/16 03:20:59;;;;;;;3.70;3.00;;;23.90;67.60;;;;;;6170810;23;20536;-68
2023/08/16 03:23:27;;;;;;;4.40;3.10;;;23.90;67.60;;;;;;6146468;22;20735;-69
2023/08/16 03:25:56;;;;;;;3.23;2.93;;;23.90;67.70;;;;;;6170751;23;20433;-67
2023/08/16 03:28:26;;;;;;;3.33;3.00;;;23.80;67.50;;;;;;6172227;23;20417;-69
2023/08/16 03:30:55;;;;;;;3.10;2.80;;;23.80;67.60;;;;;;6171242;23;20519;-67
2023/08/16 03:33:23;;;;;;;4.93;3.23;;;23.80;67.50;;;;;;6171533;23;20400;-68
2023/08/16 03:35:54;;;;;;;4.20;3.07;;;23.80;67.50;;;;;;6170205;23;20569;-69
2023/08/16 03:38:23;;;;;;;3.60;2.80;;;23.80;67.60;;;;;;6172258;23;20377;-67
2023/08/16 03:40:51;;;;;;;3.00;2.67;;;23.80;67.60;;;;;;6171446;23;20470;-68
2023/08/16 03:43:20;;;;;;;2.67;2.43;;;23.80;67.50;;;;;;6171336;23;20373;-68
2023/08/16 03:45:50;;;;;;;3.50;2.83;;;23.80;67.50;;;;;;6170785;23;20447;-69
2023/08/16 03:48:19;;;;;;;3.80;3.50;;;23.80;67.50;;;;;;6172077;23;20409;-71
2023/08/16 03:50:47;;;;;;;2.40;2.20;;;23.80;67.50;;;;;;6170305;23;20525;-67
2023/08/16 03:53:16;;;;;;;3.13;2.30;;;23.80;67.60;;;;;;6171502;23;20385;-69
2023/08/16 03:55:45;;;;;;;4.23;2.93;;;23.80;67.60;;;;;;6170528;23;21041;-68
2023/08/16 03:58:13;;;;;;;4.10;2.73;;;23.80;67.50;;;;;;6172699;23;20393;-67
2023/08/16 04:00:42;;;;;;;2.97;2.67;;;23.80;67.60;;;;;;6171066;23;20743;-69
2023/08/16 04:03:12;;;;;;;2.90;2.27;;;23.80;67.60;;;;;;6171598;23;20385;-68
2023/08/16 04:05:40;;;;;;;2.43;2.23;;;23.80;67.70;;;;;;6170269;23;20777;-67
2023/08/16 04:08:09;;;;;;;2.83;2.63;;;23.80;67.50;;;;;;6172227;23;20413;-69
2023/08/16 04:10:38;;;;;;;2.53;2.23;;;23.80;67.50;;;;;;6170888;23;20471;-68
2023/08/16 04:13:08;;;;;;;3.53;2.67;;;23.80;68.80;;;;;;6171457;23;20408;-68
2023/08/16 04:15:37;;;;;;;2.73;2.47;;;23.80;67.60;;;;;;6170455;23;20439;-69
2023/08/16 04:18:05;;;;;;;2.30;2.07;;;23.80;67.60;;;;;;6171565;23;20871;-70
2023/08/16 04:20:35;;;;;;;2.83;2.63;;;23.80;67.50;;;;;;6170172;23;20440;-68
2023/08/16 04:23:05;;;;;;;2.63;2.43;;;23.80;67.50;;;;;;6181107;23;20370;-68
2023/08/16 04:25:34;;;;;;;5.67;3.50;;;23.80;67.60;;;;;;6170995;23;20814;-69
2023/08/16 04:28:03;;;;;;;2.37;2.17;;;23.80;67.60;;;;;;6171115;23;20771;-70
2023/08/16 04:30:32;;;;;;;3.00;2.03;;;23.80;67.60;;;;;;6170794;23;20933;-69
2023/08/16 04:33:00;;;;;;;2.77;2.57;;;23.80;67.60;;;;;;6171089;23;20401;-69
2023/08/16 04:35:28;;;;;;;3.87;2.83;;;23.80;67.60;;;;;;6169521;23;20438;-67
2023/08/16 04:37:58;;;;;;;3.77;2.27;;;23.70;67.40;;;;;;6171329;23;20490;-68
2023/08/16 04:40:27;;;;;;;3.33;3.00;;;23.80;67.50;;;;;;6171056;23;20906;-68
2023/08/16 04:42:55;;;;;;;2.40;2.20;;;23.70;67.40;;;;;;6170918;23;20935;-68
2023/08/16 04:45:24;;;;;;;2.67;2.23;;;23.70;67.40;;;;;;6171922;23;20977;-69
2023/08/16 04:47:52;;;;;;;2.80;2.60;;;23.70;68.70;;;;;;6171753;23;20455;-67
2023/08/16 04:50:21;;;;;;;2.57;2.37;;;23.70;67.40;;;;;;6170664;23;20439;-69
2023/08/16 04:52:49;;;;;;;3.00;2.67;;;23.80;67.50;;;;;;6171615;23;20381;-69
2023/08/16 04:55:23;;;;;;;3.03;2.50;;;23.80;68.80;;;;;;6171630;23;20458;-69
2023/08/16 04:57:51;;;;;;;2.77;2.57;;;23.70;67.40;;;;;;6171522;23;20483;-68
2023/08/16 05:00:22;;;;;;;2.90;2.60;;;23.70;67.50;;;;;;6171645;23;20443;-70
2023/08/16 05:03:00;;;;;;;2.67;2.43;;;23.70;67.50;;;;;;6171456;23;20416;-69
2023/08/16 05:05:31;;;;;;;2.40;2.20;;;23.70;67.40;;;;;;6170642;23;20811;-68
2023/08/16 05:08:00;;;;;;;3.50;3.10;;;23.70;67.40;;;;;;6172509;23;20476;-69
2023/08/16 05:10:30;;;;;;;3.40;2.57;;;23.70;67.40;;;;;;6171006;23;20456;-68
2023/08/16 05:12:58;;;;;;;3.10;2.70;;;23.70;67.40;;;;;;6169925;23;20389;-68
2023/08/16 05:15:26;;;;;;;2.80;2.40;;;23.70;67.40;;;;;;6171330;23;20811;-69
2023/08/16 05:17:55;;;;;;;2.37;2.10;;;23.70;67.50;;;;;;6171321;23;20375;-68
2023/08/16 05:20:23;;;;;;;1.93;1.70;;;23.70;67.40;;;;;;6170013;23;20433;-68
2023/08/16 05:22:52;;;;;;;2.37;2.07;;;23.70;67.60;;;;;;6170878;23;20733;-67
2023/08/16 05:25:20;;;;;;;4.40;2.67;;;23.60;67.40;;;;;;6170391;23;20439;-68
2023/08/16 05:27:50;;;;;;;2.50;2.13;;;23.70;67.50;;;;;;6172080;23;20417;-68
2023/08/16 05:30:18;;;;;;;2.23;2.00;;;23.70;67.60;;;;;;6170513;23;20439;-69
2023/08/16 05:32:47;;;;;;;2.77;2.57;;;23.60;67.40;;;;;;6168479;23;20392;-68
2023/08/16 05:35:15;;;;;;;2.10;1.90;;;23.60;67.30;;;;;;6167191;23;20498;-67
2023/08/16 05:37:44;;;;;;;3.47;2.30;;;23.60;67.40;;;;;;6166832;23;20397;-67
2023/08/16 05:40:13;;;;;;;3.87;3.43;;;23.60;67.40;;;;;;6171937;23;21389;-68
2023/08/16 05:42:42;;;;;;;2.10;1.87;;;23.60;67.40;;;;;;6172180;23;20396;-69
2023/08/16 05:45:12;;;;;;;3.30;2.87;;;23.60;67.50;;;;;;6171957;23;20797;-68
2023/08/16 05:47:40;;;;;;;2.80;2.60;;;23.60;67.30;;;;;;6173201;23;20740;-69
2023/08/16 05:50:09;;;;;;;2.27;1.97;;;23.60;67.50;;;;;;6172282;23;20800;-69
2023/08/16 05:52:38;;;;;;;2.93;2.67;;;23.60;67.50;;;;;;6171884;23;20419;-69
2023/08/16 05:55:06;;;;;;;3.30;2.30;;;23.60;67.40;;;;;;6172109;23;20444;-69
2023/08/16 05:57:35;;;;;;;3.00;2.70;;;23.60;67.40;;;;;;6172032;23;20416;-68
2023/08/16 06:00:04;;;;;;;2.97;2.70;;;23.60;67.50;;;;;;6171836;23;20380;-68
2023/08/16 06:02:40;;;;;;;3.00;2.37;;;23.60;67.60;;;;;;6173038;23;20389;-69
2023/08/16 06:05:09;;;;;;;3.37;2.67;;;23.60;67.30;;;;;;6171564;23;20381;-68
2023/08/16 06:07:38;;;;;;;3.30;2.30;;;23.60;67.50;;;;;;6172256;23;20460;-68
2023/08/16 06:10:07;;;;;;;5.20;3.50;;;23.60;67.60;;;;;;6171418;23;20436;-68
2023/08/16 06:12:36;;;;;;;2.33;2.13;;;23.60;67.40;;;;;;6171455;23;20389;-69
2023/08/16 06:15:11;;;;;;;3.87;2.40;;;23.60;67.50;;;;;;6172053;23;20393;-67
2023/08/16 06:17:41;;;;;;;2.70;2.20;;;23.60;67.50;;;;;;6173893;23;20801;-68
2023/08/16 06:20:11;;;;;;;3.43;2.97;;;23.60;67.50;;;;;;6170142;23;20436;-68
2023/08/16 06:22:40;;;;;;;3.40;2.60;;;23.60;67.50;;;;;;6172430;23;20837;-68
2023/08/16 06:25:10;;;;;;;2.43;2.00;;;23.60;67.60;;;;;;6172052;23;20396;-69
2023/08/16 06:27:39;;;;;;;2.57;2.37;;;23.60;67.60;;;;;;6171547;23;20909;-66
2023/08/16 06:30:08;;;;;;;2.60;2.40;;;23.60;67.30;;;;;;6170675;23;20432;-68
2023/08/16 06:32:36;;;;;;;5.50;2.73;;;23.60;67.40;;;;;;6173217;23;20396;-69
2023/08/16 06:35:08;;;;;;;3.03;2.77;;;23.60;67.40;;;;;;6171527;23;20388;-68
2023/08/16 06:37:38;;;;;;;4.30;3.23;;;23.60;67.50;;;;;;6173377;23;20603;-68
2023/08/16 06:40:09;;;;;;;2.67;2.47;;;23.50;67.50;;;;;;6171940;23;20373;-68
2023/08/16 06:42:39;;;;;;;3.50;2.73;;;23.50;67.40;;;;;;6172872;23;20389;-69
2023/08/16 06:45:09;;;;;;;2.80;2.30;;;23.60;67.50;;;;;;6171493;23;20377;-68
2023/08/16 06:47:37;;;;;;;3.70;3.17;;;23.50;67.40;;;;;;6171682;23;20440;-69
2023/08/16 06:50:08;;;;;;;2.83;2.20;;;23.60;67.50;;;;;;6170338;23;20433;-68
2023/08/16 06:52:36;;;;;;;2.37;2.17;;;23.60;67.70;;;;;;6170910;23;20381;-69
2023/08/16 06:55:05;;;;;;;2.90;2.70;;;23.60;67.80;;;;;;6171599;23;20440;-68
2023/08/16 06:57:34;;;;;;;3.30;2.00;;;23.50;67.60;;;;;;6147584;23;20413;-68
2023/08/16 07:00:04;;;;;;;2.90;2.17;;;23.60;67.60;;;;;;6171637;23;20440;-68
2023/08/16 07:02:32;;;;;;;1.80;1.70;;;23.60;67.70;;;;;;6172471;23;20446;-68
2023/08/16 07:05:01;;;;;;;2.93;2.73;;;23.50;67.60;;;;;;6170349;23;20642;-68
2023/08/16 07:07:33;;;;;;;2.60;2.40;;;23.50;67.60;;;;;;6172099;23;20734;-68
2023/08/16 07:10:01;;;;;;;2.83;2.53;;;23.50;67.90;;;;;;6172187;23;20502;-67
2023/08/16 07:12:29;;;;;;;3.17;2.70;;;23.50;68.00;;;;;;6171208;23;20381;-69
2023/08/16 07:14:57;;;;;;;2.80;2.60;;;23.50;68.20;;;;;;6172464;23;20448;-67
2023/08/16 07:17:26;;;;;;;2.53;1.80;;;23.50;68.10;;;;;;6172355;23;20416;-68
2023/08/16 07:19:54;;;;;;;2.90;2.60;;;23.50;68.10;;;;;;6170729;23;20746;-67
2023/08/16 07:22:25;;;;;;;2.60;2.13;;;23.50;68.10;;;;;;6171164;23;20399;-67
2023/08/16 07:24:55;;;;;;;4.70;2.37;;;23.50;68.30;;;;;;6171280;23;20384;-68
2023/08/16 07:27:24;;;;;;;3.73;2.67;;;23.50;68.20;;;;;;6172340;23;20937;-68
2023/08/16 07:29:52;;;;;;;2.43;2.07;;;23.50;68.20;;;;;;6171233;23;20435;-68
2023/08/16 07:32:21;;;;;;;2.00;1.77;;;23.50;68.30;;;;;;6170232;23;20392;-67
2023/08/16 07:34:50;;;;;;;2.60;2.40;;;23.50;68.30;;;;;;6170038;23;20398;-66
2023/08/16 07:37:18;;;;;;;2.10;1.90;;;23.50;68.40;;;;;;6171293;23;20466;-67
2023/08/16 07:39:47;;;;;;;2.77;2.57;;;23.50;68.40;;;;;;6172526;23;20395;-68
2023/08/16 07:42:19;;;;;;;2.30;2.10;;;23.50;68.40;;;;;;6170715;23;20430;-68
2023/08/16 07:44:47;;;;;;;2.30;1.90;;;23.50;68.50;;;;;;6169774;23;20433;-68
2023/08/16 07:47:16;;;;;;;2.50;2.30;;;23.50;68.40;;;;;;6171241;23;20416;-69
2023/08/16 07:49:45;;;;;;;3.47;2.20;;;23.50;68.40;;;;;;6172402;23;20736;-67
2023/08/16 07:52:13;;;;;;;1.63;1.53;;;23.50;68.40;;;;;;6171665;23;20466;-66
2023/08/16 07:54:41;;;;;;;3.17;2.87;;;23.40;68.30;;;;;;6173109;23;20465;-68
2023/08/16 07:57:10;;;;;;;2.83;2.53;;;23.40;68.40;;;;;;6172186;23;20495;-67
2023/08/16 07:59:40;;;;;;;2.20;2.00;;;23.40;68.40;;;;;;6169693;23;20436;-69
2023/08/16 08:02:09;;;;;;;2.90;2.37;;;23.50;68.60;;;;;;6171305;23;20388;-68
2023/08/16 08:04:38;;;;;;;3.10;2.70;;;23.40;68.50;;;;;;6171400;23;20511;-68
2023/08/16 08:07:07;;;;;;;2.30;2.10;;;23.50;68.60;;;;;;6172566;23;20458;-69
2023/08/16 08:09:35;;;;;;;3.10;2.70;;;23.40;68.40;;;;;;6172870;23;20485;-69
2023/08/16 08:12:05;;;;;;;2.57;2.37;;;23.40;68.40;;;;;;6174443;23;20390;-68
2023/08/16 08:14:34;;;;;;;3.50;2.50;;;23.40;68.40;;;;;;6171550;23;20737;-67
2023/08/16 08:17:03;;;;;;;3.23;2.93;;;23.40;68.40;;;;;;6171830;23;20507;-68
2023/08/16 08:19:32;;;;;;;2.67;2.43;;;23.40;68.80;;;;;;6170720;23;20396;-68
2023/08/16 08:22:01;;;;;;;3.00;2.70;;;23.40;68.70;;;;;;6171386;23;20858;-68
2023/08/16 08:24:29;;;;;;;3.57;2.50;;;23.40;68.70;;;;;;6171258;23;20902;-68
2023/08/16 08:26:57;;;;;;;3.97;3.27;;;23.40;68.60;;;;;;6171423;23;20411;-68
2023/08/16 08:29:26;;;;;;;12.07;7.50;;;23.40;68.90;;;;;;6170534;23;20454;-69
2023/08/16 08:31:57;;;;;;;9.43;8.20;;;23.40;69.90;;;;;;6171083;23;20387;-67
2023/08/16 08:34:27;;;;;;;7.93;7.07;;;23.30;73.10;;;;;;6170674;23;20420;-67
2023/08/16 08:36:55;;;;;;;7.20;5.80;;;23.20;72.30;;;;;;6170846;23;20914;-69
2023/08/16 08:39:26;;;;;;;5.57;5.00;;;23.20;72.20;;;;;;6170397;23;20401;-68
2023/08/16 08:41:56;;;;;;;7.57;4.40;;;23.30;72.00;;;;;;6170517;23;20392;-68
2023/08/16 08:44:25;;;;;;;5.30;4.80;;;23.30;71.70;;;;;;6146033;23;20404;-68
2023/08/16 08:46:54;;;;;;;6.40;4.30;;;23.30;71.60;;;;;;6171740;23;20423;-67
2023/08/16 08:49:35;;;;;;;4.90;4.10;;;23.30;71.50;;;;;;6169681;23;20807;-67
2023/08/16 08:52:05;;;;;;;4.90;3.93;;;23.30;71.30;;;;;;6171022;23;20393;-67
2023/08/16 08:54:34;;;;;;;5.13;4.63;;;23.30;71.00;;;;;;6171197;23;20400;-67
2023/08/16 08:57:03;;;;;;;6.90;4.90;;;23.30;71.00;;;;;;6170281;23;20424;-67
2023/08/16 08:59:35;;;;;;;9.87;5.00;;;23.30;71.00;;;;;;6170628;23;20433;-68
2023/08/16 09:02:04;;;;;;;4.23;3.33;;;23.30;71.00;;;;;;6170825;23;20554;-68
2023/08/16 09:04:34;;;;;;;4.60;4.20;;;23.30;70.80;;;;;;6170187;23;20401;-67
2023/08/16 09:07:07;;;;;;;5.10;3.67;;;23.30;70.90;;;;;;6171863;23;20439;-68
2023/08/16 09:09:37;;;;;;;4.83;4.07;;;23.30;70.70;;;;;;6169982;23;20435;-68
2023/08/16 09:12:07;;;;;;;6.23;3.93;;;23.30;70.60;;;;;;6170899;23;20396;-68
2023/08/16 09:14:35;;;;;;;5.10;4.40;;;23.30;70.60;;;;;;6172353;23;21054;-67
2023/08/16 09:17:04;;;;;;;7.03;4.00;;;23.30;70.50;;;;;;6173898;23;20763;-66
2023/08/16 09:19:32;;;;;;;3.60;3.30;;;23.30;70.70;;;;;;6182873;23;20432;-69
2023/08/16 09:22:02;;;;;;;4.30;3.90;;;23.30;70.80;;;;;;6201663;22;20385;-69
2023/08/16 09:24:32;;;;;;;4.63;3.73;;;23.30;70.50;;;;;;6191381;23;20851;-68
2023/08/16 09:27:01;;;;;;;5.00;4.23;;;23.30;70.40;;;;;;6172224;23;20400;-68
2023/08/16 09:29:31;;;;;;;6.10;4.07;;;23.30;70.40;;;;;;6171885;23;20373;-68
2023/08/16 09:31:59;;;;;;;3.37;2.90;;;23.30;70.50;;;;;;6172589;23;20692;-68
2023/08/16 09:34:28;;;;;;;6.43;4.37;;;23.30;70.20;;;;;;6170849;23;20381;-68
2023/08/16 09:37:03;;;;;;;3.87;3.03;;;23.30;70.10;;;;;;6172826;23;20406;-68
2023/08/16 09:39:32;;;;;;;4.17;3.40;;;23.30;70.00;;;;;;6173069;23;20377;-67
2023/08/16 09:42:00;;;;;;;3.63;2.47;;;23.30;70.00;;;;;;6171472;23;20759;-67
2023/08/16 09:44:30;;;;;;;3.90;3.60;;;23.30;69.80;;;;;;6146140;23;20922;-67
2023/08/16 09:46:59;;;;;;;3.83;3.23;;;23.30;69.80;;;;;;6171750;23;20906;-67
2023/08/16 09:49:33;;;;;;;7.10;4.60;;;23.30;69.80;;;;;;6171242;23;20784;-67
2023/08/16 09:52:04;;;;;;;4.40;3.50;;;23.30;69.90;;;;;;6171991;23;20672;-67
2023/08/16 09:54:36;;;;;;;4.20;3.50;;;23.30;69.80;;;;;;6172222;23;20813;-67
2023/08/16 09:57:05;;;;;;;3.20;2.70;;;23.30;69.80;;;;;;6172301;23;20416;-68
2023/08/16 09:59:36;;;;;;;4.87;4.47;;;23.30;69.90;;;;;;6170418;23;20493;-68
2023/08/16 10:02:10;;;;;;;5.43;4.90;;;23.30;69.80;;;;;;6173171;23;20421;-68
2023/08/16 10:04:42;;;;;;;3.90;3.50;;;23.20;69.80;;;;;;6171037;23;20388;-68
2023/08/16 10:07:16;;;;;;;3.43;3.13;;;23.30;69.70;;;;;;6172385;23;20401;-68
2023/08/16 10:09:44;;;;;;;3.63;3.33;;;23.20;69.70;;;;;;6171195;23;20519;-68
2023/08/16 10:12:13;;;;;;;3.73;3.10;;;23.30;69.70;;;;;;6171349;23;20412;-68
2023/08/16 10:14:41;;;;;;;3.73;2.83;;;23.30;69.70;;;;;;6172076;23;20878;-67
2023/08/16 10:17:11;;;;;;;3.43;3.13;;;23.30;69.60;;;;;;6172093;23;20405;-68
2023/08/16 10:19:43;;;;;;;3.40;3.10;;;23.20;69.40;;;;;;6171728;22;20967;-68
2023/08/16 10:22:22;;;;;;;3.30;3.03;;;23.30;69.40;;;;;;6171657;23;20381;-68
2023/08/16 10:24:55;;;;;;;4.60;3.67;;;23.20;69.20;;;;;;6172254;23;20453;-68
2023/08/16 10:27:25;;;;;;;5.70;4.57;;;23.30;69.50;;;;;;6172490;23;20412;-68
2023/08/16 10:29:59;;;;;;;5.70;5.10;;;23.30;69.70;;;;;;6171192;23;20444;-68
2023/08/16 10:32:40;;;;;;;5.53;4.30;;;23.30;70.00;;;;;;6171149;23;20396;-67
2023/08/16 10:35:10;;;;;;;6.67;6.07;;;23.20;69.90;;;;;;6170124;23;20431;-68
2023/08/16 10:37:40;;;;;;;5.10;4.67;;;23.20;70.20;;;;;;6172134;23;20732;-67
2023/08/16 10:40:18;;;;;;;3.70;3.27;;;23.20;70.20;;;;;;6171451;23;20424;-68
2023/08/16 10:42:54;;;;;;;3.17;2.87;;;23.20;69.70;;;;;;6171256;23;20442;-67
2023/08/16 10:45:24;;;;;;;3.60;3.10;;;23.20;69.40;;;;;;6171045;23;20519;-68
2023/08/16 10:47:53;;;;;;;6.53;5.93;;;23.20;69.50;;;;;;6172054;23;20389;-68
2023/08/16 10:50:31;;;;;;;3.67;3.10;;;23.20;70.10;;;;;;6171439;22;20453;-67
2023/08/16 10:53:01;;;;;;;2.90;2.60;;;23.20;69.40;;;;;;6171218;23;20873;-68
2023/08/16 10:55:30;;;;;;;4.50;3.87;;;23.20;69.20;;;;;;6172729;22;20430;-68
2023/08/16 10:57:58;;;;;;;3.83;3.53;;;23.20;69.20;;;;;;6170672;22;20392;-68
2023/08/16 11:00:32;;;;;;;3.57;3.27;;;23.20;69.50;;;;;;6171519;23;20522;-67
2023/08/16 11:03:03;;;;;;;3.07;2.67;;;23.20;69.10;;;;;;6171554;23;20466;-68
2023/08/16 11:05:36;;;;;;;5.57;3.43;;;23.20;69.30;;;;;;6145468;23;20516;-68
2023/08/16 11:08:11;;;;;;;5.23;3.73;;;23.20;69.30;;;;;;6173613;23;20861;-68
2023/08/16 11:10:39;;;;;;;5.10;4.60;;;23.20;69.40;;;;;;6170885;23;20491;-67
2023/08/16 11:13:10;;;;;;;8.47;6.60;;;23.20;69.60;;;;;;6171150;23;20389;-68
2023/08/16 11:15:41;;;;;;;3.60;3.30;;;23.20;70.00;;;;;;6171332;23;20443;-70
2023/08/16 11:18:10;;;;;;;7.50;6.80;;;23.20;69.70;;;;;;6172265;23;20389;-70
2023/08/16 11:20:46;;;;;;;9.73;8.73;;;23.20;69.80;;;;;;6169782;23;20433;-70
2023/08/16 11:23:15;;;;;;;16.00;13.77;;;23.20;70.90;;;;;;6172721;23;20411;-70
2023/08/16 11:25:44;;;;;;;13.97;11.80;;;23.30;72.60;;;;;;6169876;23;20474;-70
2023/08/16 11:28:17;;;;;;;18.03;15.83;;;23.30;73.90;;;;;;6170867;23;20859;-70
2023/08/16 11:30:56;;;;;;;16.23;14.73;;;23.30;74.60;;;;;;6171124;23;20557;-71
2023/08/16 11:33:24;;;;;;;23.43;21.07;;;23.30;75.40;;;;;;6172522;23;20384;-70
2023/08/16 11:35:54;;;;;;;15.23;13.73;;;23.30;80.10;;;;;;6171246;23;20436;-70
2023/08/16 11:38:24;;;;;;;15.40;13.90;;;23.30;77.40;;;;;;6171095;23;20416;-70
2023/08/16 11:40:53;;;;;;;11.90;10.60;;;23.30;75.70;;;;;;6169956;23;20440;-70
2023/08/16 11:43:27;;;;;;;17.10;15.50;;;23.30;75.30;;;;;;6171242;23;20764;-70
2023/08/16 11:45:56;;;;;;;15.27;13.87;;;23.30;75.70;;;;;;6170420;23;20433;-70
2023/08/16 11:48:25;;;;;;;18.93;16.30;;;23.30;77.00;;;;;;6171738;23;20419;-70
2023/08/16 11:50:54;;;;;;;17.77;15.70;;;23.30;75.80;;;;;;6169794;23;20776;-70
2023/08/16 11:53:30;;;;;;;16.57;15.07;;;23.30;76.20;;;;;;6146103;23;20785;-70
2023/08/16 11:55:59;;;;;;;20.47;18.33;;;23.30;76.30;;;;;;6170856;23;20439;-70
2023/08/16 11:58:28;;;;;;;20.67;18.40;;;23.30;76.80;;;;;;6170873;23;20391;-70
2023/08/16 12:01:03;;;;;;;21.17;19.03;;;23.30;76.70;;;;;;6170795;23;20433;-70
2023/08/16 12:03:34;;;;;;;19.40;17.53;;;23.30;75.70;;;;;;6173083;23;20381;-70
2023/08/16 12:06:06;;;;;;;21.00;19.10;;;23.30;76.10;;;;;;6169793;23;20440;-70
2023/08/16 12:08:37;;;;;;;20.00;18.10;;;23.30;76.50;;;;;;6172199;23;20415;-70
2023/08/16 12:11:05;;;;;;;23.00;20.73;;;23.30;76.40;;;;;;6174876;23;20470;-71
2023/08/16 12:13:36;;;;;;;21.87;19.67;;;23.30;77.40;;;;;;6197540;22;20377;-71
2023/08/16 12:16:06;;;;;;;21.10;19.10;;;23.30;76.60;;;;;;6201617;22;20421;-70
2023/08/16 12:18:34;;;;;;;22.50;20.23;;;23.30;77.30;;;;;;6199466;22;20408;-70
2023/08/16 12:21:03;;;;;;;21.00;18.80;;;23.20;77.40;;;;;;6172820;23;20429;-70
2023/08/16 12:23:31;;;;;;;20.00;18.00;;;23.30;79.10;;;;;;6172925;23;20412;-70
2023/08/16 12:26:01;;;;;;;17.97;16.23;;;23.20;79.00;;;;;;6170905;22;20437;-70
2023/08/16 12:28:30;;;;;;;19.80;18.03;;;23.30;78.60;;;;;;6170805;23;20450;-70
2023/08/16 12:30:59;;;;;;;25.93;21.97;;;23.30;79.30;;;;;;6169888;23;20432;-70
2023/08/16 12:33:27;;;;;;;24.70;19.20;;;23.30;82.70;;;;;;6171040;23;20932;-70
2023/08/16 12:35:56;;;;;;;18.80;16.80;;;23.30;81.00;;;;;;6169622;23;20444;-70
2023/08/16 12:38:24;;;;;;;18.20;16.50;;;23.30;80.00;;;;;;6171656;23;20377;-70
2023/08/16 12:40:52;;;;;;;19.80;17.93;;;23.30;79.50;;;;;;6171539;23;20460;-70
2023/08/16 12:43:22;;;;;;;19.87;17.83;;;23.30;79.80;;;;;;6171327;23;20770;-70
2023/08/16 12:45:51;;;;;;;20.07;18.00;;;23.30;80.10;;;;;;6170666;23;20445;-70
2023/08/16 12:48:19;;;;;;;20.87;18.87;;;23.30;81.00;;;;;;6170591;23;20393;-70
2023/08/16 12:50:48;;;;;;;20.70;18.50;;;23.30;80.50;;;;;;6169984;23;20433;-70
2023/08/16 12:53:31;;;;;;;19.23;17.43;;;23.30;81.10;;;;;;6171046;23;21017;-70
2023/08/16 12:56:05;;;;;;;21.33;19.23;;;23.30;80.30;;;;;;6170955;23;20492;-70